sensor_id;sensor_type;location;lat;lon;timestamp;pressure;altitude;pressure_sealevel;temperature;humidity
74544;BME280;63016;55.030;38.710;2024-02-21T00:02:09;101009.81;;;-4.37;58.20
74544;BME280;63016;55.030;38.710;2024-02-21T00:04:35;101015.72;;;-4.35;58.11
74544;BME280;63016;55.030;38.710;2024-02-21T00:07:01;101003.81;;;-4.34;58.14
74544;BME280;63016;55.030;38.710;2024-02-21T00:09:27;101012.28;;;-4.34;58.18
74544;BME280;63016;55.030;38.710;2024-02-21T00:11:53;101008.84;;;-4.33;58.16
74544;BME280;63016;55.030;38.710;2024-02-21T00:14:18;100992.03;;;-4.38;57.91
74544;BME280;63016;55.030;38.710;2024-02-21T00:16:44;100982.69;;;-4.38;58.45
74544;BME280;63016;55.030;38.710;2024-02-21T00:19:09;101000.19;;;-4.27;58.24
74544;BME280;63016;55.030;38.710;2024-02-21T00:21:35;100990.19;;;-4.33;58.31
74544;BME280;63016;55.030;38.710;2024-02-21T00:24:00;100992.50;;;-4.26;58.28
74544;BME280;63016;55.030;38.710;2024-02-21T00:26:26;100974.78;;;-4.30;58.48
74544;BME280;63016;55.030;38.710;2024-02-21T00:28:52;100991.53;;;-4.22;58.55
74544;BME280;63016;55.030;38.710;2024-02-21T00:31:17;100983.88;;;-4.22;58.28
74544;BME280;63016;55.030;38.710;2024-02-21T00:33:43;100976.31;;;-4.23;58.16
74544;BME280;63016;55.030;38.710;2024-02-21T00:36:08;100979.63;;;-4.21;58.35
74544;BME280;63016;55.030;38.710;2024-02-21T00:38:34;100979.56;;;-4.18;58.53
74544;BME280;63016;55.030;38.710;2024-02-21T00:40:59;100977.00;;;-4.18;58.53
74544;BME280;63016;55.030;38.710;2024-02-21T00:43:25;100980.31;;;-4.16;58.17
74544;BME280;63016;55.030;38.710;2024-02-21T00:45:50;100971.03;;;-4.17;58.70
74544;BME280;63016;55.030;38.710;2024-02-21T00:48:16;100970.06;;;-4.13;58.57
74544;BME280;63016;55.030;38.710;2024-02-21T00:50:42;100962.47;;;-4.15;58.49
74544;BME280;63016;55.030;38.710;2024-02-21T00:53:07;100958.19;;;-4.14;58.09
74544;BME280;63016;55.030;38.710;2024-02-21T00:55:33;100955.66;;;-4.14;58.31
74544;BME280;63016;55.030;38.710;2024-02-21T00:57:59;100957.31;;;-4.13;58.12
74544;BME280;63016;55.030;38.710;2024-02-21T01:00:24;100943.13;;;-4.22;58.48
74544;BME280;63016;55.030;38.710;2024-02-21T01:02:50;100954.69;;;-4.10;58.78
74544;BME280;63016;55.030;38.710;2024-02-21T01:05:15;100950.50;;;-4.13;58.57
74544;BME280;63016;55.030;38.710;2024-02-21T01:07:41;100938.72;;;-4.17;58.75
74544;BME280;63016;55.030;38.710;2024-02-21T01:10:07;100956.25;;;-4.06;58.30
74544;BME280;63016;55.030;38.710;2024-02-21T01:12:33;100952.81;;;-4.05;58.46
74544;BME280;63016;55.030;38.710;2024-02-21T01:14:58;100939.28;;;-4.07;58.73
74544;BME280;63016;55.030;38.710;2024-02-21T01:17:24;100946.75;;;-4.01;58.89
74544;BME280;63016;55.030;38.710;2024-02-21T01:19:49;100950.03;;;-3.97;58.73
74544;BME280;63016;55.030;38.710;2024-02-21T01:22:15;100943.22;;;-3.97;58.73
74544;BME280;63016;55.030;38.710;2024-02-21T01:24:41;100942.34;;;-3.96;58.45
74544;BME280;63016;55.030;38.710;2024-02-21T01:27:07;100938.09;;;-3.95;58.49
74544;BME280;63016;55.030;38.710;2024-02-21T01:29:32;100938.84;;;-3.93;58.86
74544;BME280;63016;55.030;38.710;2024-02-21T01:31:58;100939.75;;;-3.94;58.47
74544;BME280;63016;55.030;38.710;2024-02-21T01:34:23;100938.81;;;-3.92;58.37
74544;BME280;63016;55.030;38.710;2024-02-21T01:36:49;100924.44;;;-3.94;58.52
74544;BME280;63016;55.030;38.710;2024-02-21T01:39:14;100925.28;;;-3.94;58.35
74544;BME280;63016;55.030;38.710;2024-02-21T01:41:40;100924.38;;;-3.91;58.71
74544;BME280;63016;55.030;38.710;2024-02-21T01:44:05;100921.81;;;-3.91;58.20
74544;BME280;63016;55.030;38.710;2024-02-21T01:46:31;100923.53;;;-3.92;58.35
74544;BME280;63016;55.030;38.710;2024-02-21T01:48:57;100929.47;;;-3.91;58.46
74544;BME280;63016;55.030;38.710;2024-02-21T01:51:26;100922.59;;;-3.89;58.71
74544;BME280;63016;55.030;38.710;2024-02-21T01:53:53;100931.00;;;-3.87;58.76
74544;BME280;63016;55.030;38.710;2024-02-21T01:56:21;100917.63;;;-3.94;58.59
74544;BME280;63016;55.030;38.710;2024-02-21T01:58:48;100914.19;;;-3.93;58.67
74544;BME280;63016;55.030;38.710;2024-02-21T02:01:14;100918.47;;;-3.93;58.33
74544;BME280;63016;55.030;38.710;2024-02-21T02:03:39;100925.00;;;-3.84;58.35
74544;BME280;63016;55.030;38.710;2024-02-21T02:06:05;100925.91;;;-3.87;58.45
74544;BME280;63016;55.030;38.710;2024-02-21T02:08:32;100925.91;;;-3.87;58.79
74544;BME280;63016;55.030;38.710;2024-02-21T02:10:58;100930.09;;;-3.84;58.84
74544;BME280;63016;55.030;38.710;2024-02-21T02:13:24;100924.16;;;-3.85;58.61
74544;BME280;63016;55.030;38.710;2024-02-21T02:15:50;100924.09;;;-3.83;58.32
74544;BME280;63016;55.030;38.710;2024-02-21T02:18:17;100920.63;;;-3.81;58.76
74544;BME280;63016;55.030;38.710;2024-02-21T02:20:44;100923.13;;;-3.79;58.73
74544;BME280;63016;55.030;38.710;2024-02-21T02:23:32;100912.97;;;-3.81;58.35
74544;BME280;63016;55.030;38.710;2024-02-21T02:25:59;100912.94;;;-3.79;58.52
74544;BME280;63016;55.030;38.710;2024-02-21T02:28:26;100909.69;;;-3.84;58.67
74544;BME280;63016;55.030;38.710;2024-02-21T02:30:52;100907.06;;;-3.81;58.77
74544;BME280;63016;55.030;38.710;2024-02-21T02:33:18;100906.94;;;-3.78;58.81
74544;BME280;63016;55.030;38.710;2024-02-21T02:35:44;100907.81;;;-3.79;58.41
74544;BME280;63016;55.030;38.710;2024-02-21T02:38:09;100908.56;;;-3.76;58.63
74544;BME280;63016;55.030;38.710;2024-02-21T02:40:38;100909.41;;;-3.75;58.86
74544;BME280;63016;55.030;38.710;2024-02-21T02:43:03;100908.56;;;-3.76;58.55
74544;BME280;63016;55.030;38.710;2024-02-21T02:45:29;100916.44;;;-3.82;58.56
74544;BME280;63016;55.030;38.710;2024-02-21T02:47:55;100911.06;;;-3.74;58.74
74544;BME280;63016;55.030;38.710;2024-02-21T02:50:25;100904.50;;;-3.81;58.42
74544;BME280;63016;55.030;38.710;2024-02-21T02:52:52;100911.88;;;-3.74;58.56
74544;BME280;63016;55.030;38.710;2024-02-21T02:55:18;100911.94;;;-3.75;58.45
74544;BME280;63016;55.030;38.710;2024-02-21T02:57:43;100892.72;;;-3.85;58.57
74544;BME280;63016;55.030;38.710;2024-02-21T03:00:13;100909.50;;;-3.78;58.78
74544;BME280;63016;55.030;38.710;2024-02-21T03:02:41;100895.16;;;-3.82;58.74
74544;BME280;63016;55.030;38.710;2024-02-21T03:05:20;100899.19;;;-3.75;58.81
74544;BME280;63016;55.030;38.710;2024-02-21T03:07:46;100904.28;;;-3.75;58.80
74544;BME280;63016;55.030;38.710;2024-02-21T03:10:13;100905.97;;;-3.74;58.72
74544;BME280;63016;55.030;38.710;2024-02-21T03:12:39;100885.84;;;-3.83;58.67
74544;BME280;63016;55.030;38.710;2024-02-21T03:15:05;100909.31;;;-3.72;59.07
74544;BME280;63016;55.030;38.710;2024-02-21T03:17:31;100903.31;;;-3.71;58.27
74544;BME280;63016;55.030;38.710;2024-02-21T03:19:57;100905.88;;;-3.71;58.57
74544;BME280;63016;55.030;38.710;2024-02-21T03:22:25;100903.34;;;-3.73;58.70
74544;BME280;63016;55.030;38.710;2024-02-21T03:24:50;100906.84;;;-3.75;58.33
74544;BME280;63016;55.030;38.710;2024-02-21T03:27:16;100905.88;;;-3.71;58.81
74544;BME280;63016;55.030;38.710;2024-02-21T03:29:42;100905.88;;;-3.71;58.47
74544;BME280;63016;55.030;38.710;2024-02-21T03:32:08;100904.25;;;-3.74;58.36
74544;BME280;63016;55.030;38.710;2024-02-21T03:34:33;100890.13;;;-3.84;58.62
74544;BME280;63016;55.030;38.710;2024-02-21T03:36:59;100890.94;;;-3.82;58.79
74544;BME280;63016;55.030;38.710;2024-02-21T03:39:25;100901.69;;;-3.74;58.88
74544;BME280;63016;55.030;38.710;2024-02-21T03:41:50;100899.13;;;-3.74;58.91
74544;BME280;63016;55.030;38.710;2024-02-21T03:44:16;100892.28;;;-3.72;58.76
74544;BME280;63016;55.030;38.710;2024-02-21T03:46:42;100899.94;;;-3.72;58.66
74544;BME280;63016;55.030;38.710;2024-02-21T03:49:07;100897.34;;;-3.70;58.76
74544;BME280;63016;55.030;38.710;2024-02-21T03:51:33;100894.78;;;-3.70;58.92
74544;BME280;63016;55.030;38.710;2024-02-21T03:53:58;100896.56;;;-3.72;58.95
74544;BME280;63016;55.030;38.710;2024-02-21T03:56:24;100893.13;;;-3.71;59.09
74544;BME280;63016;55.030;38.710;2024-02-21T03:58:50;100895.53;;;-3.67;59.30
74544;BME280;63016;55.030;38.710;2024-02-21T04:01:16;100897.13;;;-3.64;59.06
74544;BME280;63016;55.030;38.710;2024-02-21T04:03:42;100896.28;;;-3.65;58.95
74544;BME280;63016;55.030;38.710;2024-02-21T04:06:08;100902.97;;;-3.60;59.09
74544;BME280;63016;55.030;38.710;2024-02-21T04:08:34;100897.94;;;-3.64;58.99
74544;BME280;63016;55.030;38.710;2024-02-21T04:10:59;100904.63;;;-3.59;59.11
74544;BME280;63016;55.030;38.710;2024-02-21T04:13:25;100902.13;;;-3.61;58.86
74544;BME280;63016;55.030;38.710;2024-02-21T04:15:51;100905.44;;;-3.59;58.94
74544;BME280;63016;55.030;38.710;2024-02-21T04:18:16;100906.34;;;-3.60;59.02
74544;BME280;63016;55.030;38.710;2024-02-21T04:20:42;100897.03;;;-3.61;59.17
74544;BME280;63016;55.030;38.710;2024-02-21T04:23:07;100904.63;;;-3.59;58.65
74544;BME280;63016;55.030;38.710;2024-02-21T04:25:33;100908.06;;;-3.60;58.80
74544;BME280;63016;55.030;38.710;2024-02-21T04:27:58;100901.31;;;-3.62;58.54
74544;BME280;63016;55.030;38.710;2024-02-21T04:30:24;100904.00;;;-3.66;58.98
74544;BME280;63016;55.030;38.710;2024-02-21T04:32:50;100905.72;;;-3.67;59.20
74544;BME280;63016;55.030;38.710;2024-02-21T04:35:16;100900.63;;;-3.67;59.23
74544;BME280;63016;55.030;38.710;2024-02-21T04:37:42;100907.22;;;-3.61;59.08
74544;BME280;63016;55.030;38.710;2024-02-21T04:40:07;100897.25;;;-3.67;58.98
74544;BME280;63016;55.030;38.710;2024-02-21T04:42:34;100908.06;;;-3.60;58.83
74544;BME280;63016;55.030;38.710;2024-02-21T04:45:00;100908.84;;;-3.58;58.65
74544;BME280;63016;55.030;38.710;2024-02-21T04:47:25;100898.91;;;-3.66;58.97
74544;BME280;63016;55.030;38.710;2024-02-21T04:49:51;100906.28;;;-3.58;59.08
74544;BME280;63016;55.030;38.710;2024-02-21T04:52:17;100904.53;;;-3.56;58.63
74544;BME280;63016;55.030;38.710;2024-02-21T04:54:43;100909.66;;;-3.58;58.67
74544;BME280;63016;55.030;38.710;2024-02-21T04:57:08;100897.13;;;-3.64;58.94
74544;BME280;63016;55.030;38.710;2024-02-21T04:59:35;100915.66;;;-3.59;59.13
74544;BME280;63016;55.030;38.710;2024-02-21T05:02:01;100898.84;;;-3.65;58.69
74544;BME280;63016;55.030;38.710;2024-02-21T05:04:27;100910.41;;;-3.54;58.94
74544;BME280;63016;55.030;38.710;2024-02-21T05:06:52;100913.06;;;-3.57;59.10
74544;BME280;63016;55.030;38.710;2024-02-21T05:09:18;100911.19;;;-3.52;58.68
74544;BME280;63016;55.030;38.710;2024-02-21T05:11:43;100910.25;;;-3.50;59.18
74544;BME280;63016;55.030;38.710;2024-02-21T05:14:09;100910.19;;;-3.48;59.07
74544;BME280;63016;55.030;38.710;2024-02-21T05:16:34;100913.63;;;-3.49;59.28
74544;BME280;63016;55.030;38.710;2024-02-21T05:19:00;100911.91;;;-3.49;58.73
74544;BME280;63016;55.030;38.710;2024-02-21T05:21:26;100906.09;;;-3.52;59.19
74544;BME280;63016;55.030;38.710;2024-02-21T05:23:53;100898.28;;;-3.48;59.37
74544;BME280;63016;55.030;38.710;2024-02-21T05:26:23;100909.28;;;-3.46;59.00
74544;BME280;63016;55.030;38.710;2024-02-21T05:28:49;100913.38;;;-3.42;59.35
74544;BME280;63016;55.030;38.710;2024-02-21T05:31:18;100899.16;;;-3.49;59.15
74544;BME280;63016;55.030;38.710;2024-02-21T05:33:44;100909.88;;;-3.39;59.51
74544;BME280;63016;55.030;38.710;2024-02-21T05:36:10;100886.41;;;-3.49;59.63
74544;BME280;63016;55.030;38.710;2024-02-21T05:38:36;100902.97;;;-3.36;59.62
74544;BME280;63016;55.030;38.710;2024-02-21T05:41:02;100911.28;;;-3.30;59.61
74544;BME280;63016;55.030;38.710;2024-02-21T05:43:28;100919.59;;;-3.24;59.08
74544;BME280;63016;55.030;38.710;2024-02-21T05:45:53;100910.25;;;-3.25;59.39
74544;BME280;63016;55.030;38.710;2024-02-21T05:48:19;100911.94;;;-3.24;59.23
74544;BME280;63016;55.030;38.710;2024-02-21T05:50:45;100914.38;;;-3.21;59.34
74544;BME280;63016;55.030;38.710;2024-02-21T05:53:11;100909.19;;;-3.19;59.51
74544;BME280;63016;55.030;38.710;2024-02-21T05:55:36;100910.88;;;-3.18;58.96
74544;BME280;63016;55.030;38.710;2024-02-21T06:56:00;100908.63;;;-2.34;59.97
74544;BME280;63016;55.030;38.710;2024-02-21T06:58:25;100919.31;;;-2.22;60.00
74544;BME280;63016;55.030;38.710;2024-02-21T07:00:51;100924.94;;;-2.14;61.02
74544;BME280;63016;55.030;38.710;2024-02-21T07:03:16;100916.84;;;-2.03;60.34
74544;BME280;63016;55.030;38.710;2024-02-21T07:05:42;100902.41;;;-2.04;60.55
74544;BME280;63016;55.030;38.710;2024-02-21T07:08:08;100913.69;;;-1.88;60.21
74544;BME280;63016;55.030;38.710;2024-02-21T07:10:33;100913.38;;;-1.81;60.60
74544;BME280;63016;55.030;38.710;2024-02-21T07:12:59;100915.56;;;-1.71;60.51
74544;BME280;63016;55.030;38.710;2024-02-21T07:15:25;100922.13;;;-1.64;60.87
74544;BME280;63016;55.030;38.710;2024-02-21T07:17:52;100916.59;;;-1.55;60.27
74544;BME280;63016;55.030;38.710;2024-02-21T07:20:18;100921.41;;;-1.47;60.90
74544;BME280;63016;55.030;38.710;2024-02-21T07:22:44;100920.31;;;-1.42;60.21
74544;BME280;63016;55.030;38.710;2024-02-21T07:25:09;100882.44;;;-1.54;60.94
74544;BME280;63016;55.030;38.710;2024-02-21T07:27:35;100917.06;;;-1.25;60.34
74544;BME280;63016;55.030;38.710;2024-02-21T07:30:00;100908.28;;;-1.19;60.27
74544;BME280;63016;55.030;38.710;2024-02-21T07:32:26;100902.13;;;-1.15;60.49
74544;BME280;63016;55.030;38.710;2024-02-21T07:34:51;100914.28;;;-1.00;60.93
74544;BME280;63016;55.030;38.710;2024-02-21T07:37:17;100917.19;;;-0.89;60.37
74544;BME280;63016;55.030;38.710;2024-02-21T07:39:42;100913.47;;;-0.82;60.69
74544;BME280;63016;55.030;38.710;2024-02-21T07:42:08;100915.88;;;-0.79;60.66
74544;BME280;63016;55.030;38.710;2024-02-21T07:44:34;100914.66;;;-0.70;60.68
74544;BME280;63016;55.030;38.710;2024-02-21T07:46:59;100905.16;;;-0.68;61.02
74544;BME280;63016;55.030;38.710;2024-02-21T07:49:25;100920.81;;;-0.55;61.04
74544;BME280;63016;55.030;38.710;2024-02-21T07:51:51;100915.28;;;-0.46;60.34
74544;BME280;63016;55.030;38.710;2024-02-21T07:54:17;100911.59;;;-0.40;60.36
74544;BME280;63016;55.030;38.710;2024-02-21T07:56:43;100915.59;;;-0.35;60.43
74544;BME280;63016;55.030;38.710;2024-02-21T07:59:08;100912.00;;;-0.31;60.37
74544;BME280;63016;55.030;38.710;2024-02-21T08:01:34;100902.88;;;-0.36;60.44
74544;BME280;63016;55.030;38.710;2024-02-21T08:04:00;100920.09;;;-0.21;60.50
74544;BME280;63016;55.030;38.710;2024-02-21T08:06:26;100921.50;;;-0.14;60.82
74544;BME280;63016;55.030;38.710;2024-02-21T08:08:51;100912.59;;;-0.07;60.47
74544;BME280;63016;55.030;38.710;2024-02-21T08:11:17;100913.69;;;0.07;60.76
74544;BME280;63016;55.030;38.710;2024-02-21T08:13:42;100917.53;;;0.15;60.75
74544;BME280;63016;55.030;38.710;2024-02-21T08:16:08;100907.78;;;0.22;61.22
74544;BME280;63016;55.030;38.710;2024-02-21T08:18:33;100927.06;;;0.31;60.69
74544;BME280;63016;55.030;38.710;2024-02-21T08:21:03;100916.63;;;0.34;60.33
74544;BME280;63016;55.030;38.710;2024-02-21T08:23:28;100919.50;;;0.45;60.89
74544;BME280;63016;55.030;38.710;2024-02-21T08:25:54;100926.00;;;0.52;60.63
74544;BME280;63016;55.030;38.710;2024-02-21T08:28:20;100924.81;;;0.59;60.57
74544;BME280;63016;55.030;38.710;2024-02-21T08:30:45;100923.16;;;0.58;60.24
74544;BME280;63016;55.030;38.710;2024-02-21T08:33:15;100926.38;;;0.62;59.70
74544;BME280;63016;55.030;38.710;2024-02-21T08:35:42;100923.88;;;0.60;60.30
74544;BME280;63016;55.030;38.710;2024-02-21T08:38:07;100927.13;;;0.64;60.13
74544;BME280;63016;55.030;38.710;2024-02-21T08:40:33;100931.13;;;0.69;60.51
74544;BME280;63016;55.030;38.710;2024-02-21T08:43:00;100933.38;;;0.75;61.27
74544;BME280;63016;55.030;38.710;2024-02-21T08:45:26;100928.47;;;0.88;60.59
74544;BME280;63016;55.030;38.710;2024-02-21T08:47:51;100926.31;;;0.96;60.63
74544;BME280;63016;55.030;38.710;2024-02-21T08:50:17;100928.50;;;1.04;60.73
74544;BME280;63016;55.030;38.710;2024-02-21T08:52:42;100926.63;;;1.08;60.65
74544;BME280;63016;55.030;38.710;2024-02-21T08:55:08;100923.63;;;1.15;60.67
74544;BME280;63016;55.030;38.710;2024-02-21T08:57:34;100920.00;;;1.19;59.98
74544;BME280;63016;55.030;38.710;2024-02-21T09:00:05;100904.81;;;1.15;60.58
74544;BME280;63016;55.030;38.710;2024-02-21T09:02:40;100920.44;;;1.27;60.27
74544;BME280;63016;55.030;38.710;2024-02-21T09:05:06;100895.88;;;1.22;60.03
74544;BME280;63016;55.030;38.710;2024-02-21T09:07:32;100904.56;;;1.35;60.83
74544;BME280;63016;55.030;38.710;2024-02-21T09:09:57;100896.81;;;1.37;60.49
74544;BME280;63016;55.030;38.710;2024-02-21T09:12:23;100909.50;;;1.56;60.90
74544;BME280;63016;55.030;38.710;2024-02-21T09:14:49;100908.25;;;1.63;60.65
74544;BME280;63016;55.030;38.710;2024-02-21T09:17:16;100909.84;;;1.65;59.75
74544;BME280;63016;55.030;38.710;2024-02-21T09:19:49;100909.66;;;1.68;60.32
74544;BME280;63016;55.030;38.710;2024-02-21T09:22:14;100913.72;;;1.72;60.21
74544;BME280;63016;55.030;38.710;2024-02-21T09:24:40;100891.41;;;1.73;59.75
74544;BME280;63016;55.030;38.710;2024-02-21T09:27:05;100902.50;;;1.73;59.80
74544;BME280;63016;55.030;38.710;2024-02-21T09:29:31;100900.19;;;1.69;59.79
74544;BME280;63016;55.030;38.710;2024-02-21T09:31:59;100882.38;;;1.66;59.90
74544;BME280;63016;55.030;38.710;2024-02-21T09:34:24;100895.56;;;1.75;59.94
74544;BME280;63016;55.030;38.710;2024-02-21T09:36:50;100898.97;;;1.76;59.57
74544;BME280;63016;55.030;38.710;2024-02-21T09:39:16;100883.38;;;1.79;60.18
74544;BME280;63016;55.030;38.710;2024-02-21T09:41:46;100885.06;;;1.78;59.56
74544;BME280;63016;55.030;38.710;2024-02-21T09:44:13;100882.75;;;1.74;59.83
74544;BME280;63016;55.030;38.710;2024-02-21T09:49:32;100887.50;;;1.82;59.47
74544;BME280;63016;55.030;38.710;2024-02-21T09:52:01;100892.72;;;1.80;59.52
74544;BME280;63016;55.030;38.710;2024-02-21T09:54:29;100884.19;;;1.79;60.27
74544;BME280;63016;55.030;38.710;2024-02-21T09:56:56;100878.03;;;1.82;60.12
74544;BME280;63016;55.030;38.710;2024-02-21T09:59:22;100876.38;;;1.81;60.34
74544;BME280;63016;55.030;38.710;2024-02-21T10:01:49;100881.09;;;1.89;60.00
74544;BME280;63016;55.030;38.710;2024-02-21T10:04:16;100881.69;;;1.94;60.55
74544;BME280;63016;55.030;38.710;2024-02-21T10:06:42;100884.81;;;1.99;60.67
74544;BME280;63016;55.030;38.710;2024-02-21T10:09:08;100873.25;;;2.06;60.25
74544;BME280;63016;55.030;38.710;2024-02-21T10:11:33;100872.72;;;2.15;60.65
74544;BME280;63016;55.030;38.710;2024-02-21T10:14:03;100865.41;;;2.23;60.33
74544;BME280;63016;55.030;38.710;2024-02-21T10:16:30;100868.34;;;2.31;60.56
74544;BME280;63016;55.030;38.710;2024-02-21T10:18:56;100864.69;;;2.36;60.07
74544;BME280;63016;55.030;38.710;2024-02-21T10:21:21;100866.34;;;2.37;60.06
74544;BME280;63016;55.030;38.710;2024-02-21T10:23:51;100864.31;;;2.42;60.64
74544;BME280;63016;55.030;38.710;2024-02-21T10:26:18;100863.41;;;2.43;59.87
74544;BME280;63016;55.030;38.710;2024-02-21T10:28:45;100852.56;;;2.38;59.75
74544;BME280;63016;55.030;38.710;2024-02-21T10:31:24;100825.84;;;2.24;59.18
74544;BME280;63016;55.030;38.710;2024-02-21T10:33:57;100859.00;;;2.45;59.81
74544;BME280;63016;55.030;38.710;2024-02-21T10:36:23;100862.22;;;2.48;60.12
74544;BME280;63016;55.030;38.710;2024-02-21T10:38:52;100862.13;;;2.50;59.99
74544;BME280;63016;55.030;38.710;2024-02-21T10:41:20;100852.75;;;2.49;60.41
74544;BME280;63016;55.030;38.710;2024-02-21T10:43:51;100854.03;;;2.56;59.86
74544;BME280;63016;55.030;38.710;2024-02-21T10:46:24;100854.69;;;2.60;59.91
74544;BME280;63016;55.030;38.710;2024-02-21T10:49:11;100836.00;;;2.56;60.02
74544;BME280;63016;55.030;38.710;2024-02-21T10:51:43;100848.81;;;2.57;59.66
74544;BME280;63016;55.030;38.710;2024-02-21T10:56:53;100824.97;;;2.54;59.95
74544;BME280;63016;55.030;38.710;2024-02-21T10:59:22;100851.84;;;2.64;60.00
74544;BME280;63016;55.030;38.710;2024-02-21T11:01:48;100843.84;;;2.69;59.80
74544;BME280;63016;55.030;38.710;2024-02-21T11:04:14;100843.13;;;2.67;59.79
74544;BME280;63016;55.030;38.710;2024-02-21T11:06:41;100842.84;;;2.71;60.18
74544;BME280;63016;55.030;38.710;2024-02-21T11:09:11;100841.00;;;2.73;59.62
74544;BME280;63016;55.030;38.710;2024-02-21T11:11:46;100824.81;;;2.71;59.80
74544;BME280;63016;55.030;38.710;2024-02-21T11:14:18;100833.09;;;2.76;59.32
74544;BME280;63016;55.030;38.710;2024-02-21T11:16:44;100843.19;;;2.79;60.17
74544;BME280;63016;55.030;38.710;2024-02-21T11:19:20;100839.34;;;2.87;60.08
74544;BME280;63016;55.030;38.710;2024-02-21T11:21:47;100834.84;;;2.90;59.99
74544;BME280;63016;55.030;38.710;2024-02-21T11:24:31;100827.16;;;2.89;59.26
74544;BME280;63016;55.030;38.710;2024-02-21T11:27:12;100823.94;;;2.85;59.50
74544;BME280;63016;55.030;38.710;2024-02-21T11:29:45;100823.88;;;2.87;59.53
74544;BME280;63016;55.030;38.710;2024-02-21T11:32:14;100827.00;;;2.92;60.14
74544;BME280;63016;55.030;38.710;2024-02-21T11:34:41;100824.03;;;2.98;60.43
74544;BME280;63016;55.030;38.710;2024-02-21T11:37:13;100823.38;;;3.08;59.97
74544;BME280;63016;55.030;38.710;2024-02-21T11:39:42;100817.84;;;3.15;60.37
74544;BME280;63016;55.030;38.710;2024-02-21T11:42:09;100799.06;;;3.13;60.12
74544;BME280;63016;55.030;38.710;2024-02-21T11:44:35;100817.38;;;3.22;59.20
74544;BME280;63016;55.030;38.710;2024-02-21T11:47:04;100810.56;;;3.21;59.20
74544;BME280;63016;55.030;38.710;2024-02-21T11:49:30;100812.31;;;3.21;59.57
74544;BME280;63016;55.030;38.710;2024-02-21T11:52:03;100825.31;;;3.19;58.96
74544;BME280;63016;55.030;38.710;2024-02-21T11:54:32;100816.72;;;3.19;59.63
74544;BME280;63016;55.030;38.710;2024-02-21T11:56:58;100810.13;;;3.15;59.23
74544;BME280;63016;55.030;38.710;2024-02-21T11:59:24;100802.75;;;3.08;59.45
74544;BME280;63016;55.030;38.710;2024-02-21T12:01:50;100817.22;;;3.11;58.68
74544;BME280;63016;55.030;38.710;2024-02-21T12:04:18;100821.28;;;3.01;58.77
74544;BME280;63016;55.030;38.710;2024-02-21T12:06:45;100807.47;;;2.88;58.76
74544;BME280;63016;55.030;38.710;2024-02-21T12:09:14;100818.78;;;2.85;59.12
74544;BME280;63016;55.030;38.710;2024-02-21T12:11:41;100810.06;;;2.88;59.30
74544;BME280;63016;55.030;38.710;2024-02-21T12:14:07;100816.69;;;2.92;59.46
74544;BME280;63016;55.030;38.710;2024-02-21T12:16:35;100813.19;;;2.93;59.14
74544;BME280;63016;55.030;38.710;2024-02-21T12:19:04;100812.53;;;2.89;58.93
74544;BME280;63016;55.030;38.710;2024-02-21T12:21:33;100815.31;;;2.86;59.05
74544;BME280;63016;55.030;38.710;2024-02-21T12:24:15;100813.75;;;2.83;58.89
74544;BME280;63016;55.030;38.710;2024-02-21T12:26:41;100809.63;;;2.81;58.73
74544;BME280;63016;55.030;38.710;2024-02-21T12:29:07;100812.47;;;2.76;58.78
74544;BME280;63016;55.030;38.710;2024-02-21T12:31:37;100808.41;;;2.72;58.83
74544;BME280;63016;55.030;38.710;2024-02-21T12:34:03;100806.94;;;2.68;58.72
74544;BME280;63016;55.030;38.710;2024-02-21T12:36:32;100811.44;;;2.65;58.74
74544;BME280;63016;55.030;38.710;2024-02-21T12:38:59;100811.16;;;2.55;58.34
74544;BME280;63016;55.030;38.710;2024-02-21T12:41:25;100794.22;;;2.37;58.90
74544;BME280;63016;55.030;38.710;2024-02-21T12:43:53;100797.91;;;2.33;58.52
74544;BME280;63016;55.030;38.710;2024-02-21T12:46:18;100797.38;;;2.27;58.77
74544;BME280;63016;55.030;38.710;2024-02-21T12:48:44;100796.78;;;2.22;58.60
74544;BME280;63016;55.030;38.710;2024-02-21T12:51:09;100797.81;;;2.20;58.82
74544;BME280;63016;55.030;38.710;2024-02-21T12:53:35;100808.38;;;2.15;58.84
74544;BME280;63016;55.030;38.710;2024-02-21T12:56:01;100796.41;;;2.14;58.56
74544;BME280;63016;55.030;38.710;2024-02-21T12:58:27;100791.44;;;2.11;58.54
74544;BME280;63016;55.030;38.710;2024-02-21T13:00:52;100774.16;;;1.99;58.99
74544;BME280;63016;55.030;38.710;2024-02-21T13:03:18;100771.75;;;1.96;58.83
74544;BME280;63016;55.030;38.710;2024-02-21T13:05:44;100762.81;;;1.87;58.16
74544;BME280;63016;55.030;38.710;2024-02-21T13:08:09;100771.69;;;1.82;57.88
74544;BME280;63016;55.030;38.710;2024-02-21T13:10:35;100771.50;;;1.70;58.23
74544;BME280;63016;55.030;38.710;2024-02-21T13:13:01;100776.41;;;1.59;58.19
74544;BME280;63016;55.030;38.710;2024-02-21T13:15:27;100767.38;;;1.52;58.21
74544;BME280;63016;55.030;38.710;2024-02-21T13:17:56;100770.00;;;1.36;57.72
74544;BME280;63016;55.030;38.710;2024-02-21T13:20:25;100771.56;;;1.23;58.39
74544;BME280;63016;55.030;38.710;2024-02-21T13:22:52;100763.69;;;1.10;58.27
74544;BME280;63016;55.030;38.710;2024-02-21T13:25:17;100772.81;;;1.16;58.83
74544;BME280;63016;55.030;38.710;2024-02-21T13:27:47;100779.22;;;1.09;58.50
74544;BME280;63016;55.030;38.710;2024-02-21T13:30:14;100764.19;;;1.01;57.93
74544;BME280;63016;55.030;38.710;2024-02-21T13:32:41;100751.84;;;0.92;58.46
74544;BME280;63016;55.030;38.710;2024-02-21T13:35:08;100764.63;;;0.93;58.30
74544;BME280;63016;55.030;38.710;2024-02-21T13:37:34;100754.84;;;0.84;58.16
74544;BME280;63016;55.030;38.710;2024-02-21T13:40:00;100769.19;;;0.88;58.26
74544;BME280;63016;55.030;38.710;2024-02-21T13:42:25;100763.53;;;0.82;58.00
74544;BME280;63016;55.030;38.710;2024-02-21T13:44:53;100768.91;;;0.77;58.62
74544;BME280;63016;55.030;38.710;2024-02-21T13:47:18;100764.00;;;0.72;58.80